Flight Track Log - Related Links

Times and Time Zones

All times are in EDT time to prevent confusion due to time zone crossing. See the DAL1912 flight status page for this flight to view local times or setup timezone preferences in your user account.

Time Position Orientation Groundspeed Altitude Reporting Facility
EDT Latitude Longitude Course Direction KTS MPH feet Rate Location/Type
Sat 01:20:45 PM 40.8056 -111.9628 158° South 182 209 5,000  Level Salt Lake Center
Sat 01:21:45 PM 40.8606 -111.9694 355° North 220 253 6,700 1,829 Climbing Salt Lake Center
Sat 01:22:07 PM 40.8864 -111.9728 354° North 228 262 7,500 2,656 Climbing Salt Lake Center
Sat 01:22:46 PM 40.9314 -111.9794 354° North 257 296 9,400 2,951 Climbing Salt Lake Center
Sat 01:23:00 PM 41.1314 -111.9198 51° Northeast  Level FlightAware Approximate
Sat 01:23:08 PM 40.9592 -111.9839 353° North 258 297 10,500  Level Salt Lake Center
Sat 01:24:00 PM 41.1102 -111.7632 158° South  Level FlightAware Approximate
Sat 01:24:10 PM 41.0233 -111.9481 23° Northeast 279 321 12,900  Level Salt Lake Center
Sat 01:25:00 PM 40.9929 -111.7005 158° South  Level FlightAware Approximate
Sat 01:25:11 PM 40.9914 -111.8553 114° Southeast 315 362 14,000  Level Salt Lake Center
Sat 01:26:00 PM 40.8755 -111.6380 158° South  Level FlightAware Approximate
Sat 01:26:12 PM 40.9258 -111.7572 131° Southeast 367 422 15,300  Level Salt Lake Center
Sat 01:27:14 PM 40.8583 -111.6458 129° Southeast 389 448 17,700 2,293 Climbing Salt Lake Center
Sat 01:28:15 PM 40.8106 -111.4764 110° East 417 480 20,000 2,066 Climbing Salt Lake Center
Sat 01:29:16 PM 40.7772 -111.3233 106° East 435 501 21,900 1,659 Climbing Salt Lake Center
Sat 01:30:18 PM 40.7417 -111.1675 107° East 442 509 23,400 1,463 Climbing Salt Lake Center
Sat 01:31:19 PM 40.7044 -111.0042 107° East 459 528 24,900 1,463 Climbing Salt Lake Center
Sat 01:32:21 PM 40.6650 -110.8367 107° East 476 548 26,400 1,317 Climbing Salt Lake Center
Sat 01:33:22 PM 40.6258 -110.6675 107° East 483 556 27,600 1,220 Climbing Salt Lake Center
Sat 01:34:24 PM 40.5792 -110.4658 107° East 502 578 28,900 1,366 Climbing Salt Lake Center
Sat 01:35:25 PM 40.5392 -110.2969 107° East 505 581 30,400 1,268 Climbing Salt Lake Center
Sat 01:36:27 PM 40.5056 -110.1250 104° East 508 585 31,500 1,317 Climbing Salt Lake Center
Sat 01:37:28 PM 40.4675 -109.9222 104° East 511 588 33,100 1,317 Climbing Salt Lake Center
Sat 01:38:30 PM 40.4353 -109.7503 104° East 508 585 34,200 927 Climbing Salt Lake Center
Sat 01:39:31 PM 40.3961 -109.5486 104° East 511 588 35,000 390 Climbing Salt Lake Center
Sat 01:40:33 PM 40.3608 -109.3750 105° East 514 592 35,000  Level Salt Lake Center
Sat 01:41:35 PM 40.3211 -109.1692 104° East 518 596 35,000  Level Salt Lake Center
Sat 01:42:36 PM 40.2861 -108.9956 105° East 515 593 35,000  Level Salt Lake Center
Sat 01:43:33 PM 40.2514 -108.8186 104° East 515 593 35,000  Level Denver Center
Sat 01:44:35 PM 40.2167 -108.6447 105° East 512 589 35,000  Level Denver Center
Sat 01:45:41 PM 40.1761 -108.4444 105° East 511 588 35,000  Level Salt Lake Center
Sat 01:46:39 PM 40.1403 -108.2700 105° East 509 586 35,000  Level Denver Center
Sat 01:47:41 PM 40.1031 -108.0969 106° East 513 590 35,000  Level Denver Center
Sat 01:48:42 PM 40.0583 -107.8964 106° East 515 593 35,000  Level Denver Center
Sat 01:49:44 PM 40.0056 -107.7317 113° Southeast 512 589 35,000  Level Denver Center
Sat 01:50:46 PM 39.9428 -107.5392 113° Southeast 514 592 35,000  Level Denver Center
Sat 01:51:48 PM 39.8883 -107.3750 113° Southeast 514 592 35,000  Level Denver Center
Sat 01:52:50 PM 39.8250 -107.1844 113° Southeast 513 590 35,000  Level Denver Center
Sat 01:53:52 PM 39.7775 -107.0392 113° Southeast 511 588 35,000  Level Denver Center
Sat 01:54:54 PM 39.7194 -106.8661 114° Southeast 514 592 35,000  Level Denver Center
Sat 01:55:55 PM 39.6550 -106.6681 113° Southeast 511 588 35,000  Level Denver Center
Sat 01:56:57 PM 39.5869 -106.4917 117° Southeast 510 587 35,000  Level Denver Center
Sat 01:57:59 PM 39.4983 -106.3458 128° Southeast 509 586 35,000  Level Denver Center
Sat 01:59:01 PM 39.4258 -106.1878 121° Southeast 516 594 35,000  Level Denver Center
Sat 02:00:02 PM 39.3822 -106.0161 108° East 515 593 35,000  Level Denver Center
Sat 02:01:04 PM 39.3386 -105.8383 108° East 515 593 35,000  Level Denver Center
Sat 02:02:06 PM 39.2950 -105.6592 107° East 518 596 35,000  Level Denver Center
Sat 02:03:08 PM 39.2514 -105.4831 108° East 513 590 35,000  Level Denver Center
Sat 02:04:09 PM 39.2000 -105.2781 108° East 512 589 35,000  Level Denver Center
Sat 02:05:11 PM 39.1553 -105.1036 108° East 512 589 35,000  Level Denver Center
Sat 02:06:13 PM 39.1106 -104.9283 108° East 513 590 35,000  Level Denver Center
Sat 02:07:15 PM 39.0661 -104.7544 108° East 511 588 35,000  Level Denver Center
Sat 02:08:16 PM 39.0219 -104.5806 108° East 511 588 35,000  Level Denver Center
Sat 02:09:18 PM 38.9750 -104.4058 109° East 514 592 35,000  Level Denver Center
Sat 02:10:20 PM 38.9278 -104.2325 109° East 512 589 35,000  Level Denver Center
Sat 02:11:21 PM 38.8725 -104.0275 109° East 517 595 35,000  Level Denver Center
Sat 02:12:23 PM 38.8247 -103.8506 109° East 518 596 35,000  Level Denver Center
Sat 02:13:25 PM 38.7783 -103.6831 110° East 518 596 35,000  Level Denver Center
Sat 02:14:26 PM 38.7319 -103.5158 110° East 519 597 35,000  Level Denver Center
Sat 02:15:28 PM 38.6808 -103.3261 109° East 514 592 35,000  Level Denver Center
Sat 02:16:30 PM 38.6311 -103.1503 110° East 521 600 35,000  Level Denver Center
Sat 02:17:31 PM 38.5808 -102.9731 110° East 526 605 35,000  Level Denver Center
Sat 02:18:33 PM 38.5278 -102.7883 110° East 519 597 35,000  Level Denver Center
Sat 02:19:35 PM 38.4811 -102.6217 110° East 521 600 35,000  Level Denver Center
Sat 02:20:36 PM 38.4258 -102.4283 110° East 521 600 35,000  Level Denver Center
Sat 02:21:38 PM 38.3772 -102.2647 111° Southeast 515 593 35,000  Level Denver Center
Sat 02:22:39 PM 38.3225 -102.0728 110° East 515 593 35,000  Level Denver Center
Sat 02:23:41 PM 38.2747 -101.9086 110° East 518 596 35,000  Level Denver Center
Sat 02:24:43 PM 38.2181 -101.7167 111° Southeast 518 596 35,000  Level Denver Center
Sat 02:25:44 PM 38.1694 -101.5522 111° Southeast 518 596 35,000  Level Denver Center
Sat 02:26:46 PM 38.1200 -101.3889 111° Southeast 518 596 35,000  Level Denver Center
Sat 02:27:47 PM 38.0633 -101.1978 111° Southeast 517 595 35,000  Level Denver Center
Sat 02:28:49 PM 38.0142 -101.0353 111° Southeast 514 592 35,000  Level Denver Center
Sat 02:29:50 PM 37.9639 -100.8711 111° Southeast 515 593 35,000  Level Denver Center
Sat 02:30:22 PM 37.9306 -100.7611 111° Southeast 514 592 35,000  Level Kansas City Center
Sat 02:31:23 PM 37.8811 -100.5964 111° Southeast 515 593 35,000  Level Kansas City Center
Sat 02:32:25 PM 37.8286 -100.4336 112° Southeast 517 595 35,000 293 Level Kansas City Center
Sat 02:33:26 PM 37.7694 -100.2464 112° Southeast 513 590 35,600 780 Climbing Kansas City Center
Sat 02:34:28 PM 37.7203 -100.0906 112° Southeast 503 579 36,600 683 Climbing Kansas City Center
Sat 02:35:29 PM 37.6631 -99.9072 111° Southeast 502 578 37,000 195 Climbing Kansas City Center
Sat 02:36:31 PM 37.6144 -99.7497 111° Southeast 503 579 37,000  Level Kansas City Center
Sat 02:37:32 PM 37.5647 -99.5906 111° Southeast 508 585 37,000  Level Kansas City Center
Sat 02:38:34 PM 37.5119 -99.4317 113° Southeast 512 589 37,000  Level Kansas City Center
Sat 02:39:36 PM 37.4475 -99.2314 112° Southeast 515 593 37,000  Level Kansas City Center
Sat 02:40:37 PM 37.3939 -99.0675 112° Southeast 511 588 37,000  Level Kansas City Center
Sat 02:41:39 PM 37.3411 -98.9056 112° Southeast 507 583 37,000  Level Kansas City Center
Sat 02:42:40 PM 37.2867 -98.7439 113° Southeast 504 580 37,000  Level Kansas City Center
Sat 02:43:42 PM 37.2322 -98.5839 113° Southeast 504 580 37,000  Level Kansas City Center
Sat 02:44:43 PM 37.1789 -98.4233 113° Southeast 502 578 37,000  Level Kansas City Center
Sat 02:45:45 PM 37.1258 -98.2653 113° Southeast 498 573 37,000  Level Kansas City Center
Sat 02:46:46 PM 37.0611 -98.0739 113° Southeast 497 572 37,000  Level Kansas City Center
Sat 02:47:48 PM 37.0072 -97.9131 113° Southeast 502 578 37,000 244 Level Kansas City Center
Sat 02:48:49 PM 36.9531 -97.7550 113° Southeast 500 575 37,500 634 Climbing Kansas City Center
Sat 02:49:51 PM 36.8994 -97.5964 113° Southeast 498 573 38,300 732 Climbing Kansas City Center
Sat 02:50:52 PM 36.8647 -97.4300 105° East 501 577 39,000 341 Climbing Kansas City Center
Sat 02:51:54 PM 36.8303 -97.2597 104° East 501 577 39,000  Level Kansas City Center
Sat 02:52:55 PM 36.7911 -97.0964 107° East 496 571 39,000  Level Kansas City Center
Sat 02:53:57 PM 36.7553 -96.9350 105° East 487 560 39,000  Level Kansas City Center
Sat 02:54:58 PM 36.7117 -96.7381 105° East 489 563 39,000  Level Kansas City Center
Sat 02:56:00 PM 36.6758 -96.5733 105° East 493 567 39,000  Level Kansas City Center
Sat 02:57:01 PM 36.6397 -96.4103 105° East 489 563 39,000  Level Kansas City Center
Sat 02:58:03 PM 36.6047 -96.2492 105° East 484 557 39,000  Level Kansas City Center
Sat 02:59:05 PM 36.5681 -96.0872 106° East 486 559 39,000  Level Kansas City Center
Sat 03:00:06 PM 36.5317 -95.9261 106° East 484 557 39,000  Level Kansas City Center
Sat 03:01:08 PM 36.4950 -95.7650 106° East 483 556 39,000  Level Kansas City Center
Sat 03:02:09 PM 36.4589 -95.6069 106° East 484 557 39,000  Level Kansas City Center
Sat 03:03:11 PM 36.4217 -95.4486 106° East 482 555 39,000  Level Kansas City Center
Sat 03:04:13 PM 36.3772 -95.2572 106° East 481 554 39,000  Level Kansas City Center
Sat 03:05:14 PM 36.3414 -95.0992 106° East 479 551 39,000  Level Kansas City Center
Sat 03:06:16 PM 36.3067 -94.9506 106° East 482 555 39,000  Level Kansas City Center
Sat 03:07:17 PM 36.2689 -94.7908 106° East 483 556 39,000  Level Kansas City Center
Sat 03:08:19 PM 36.2308 -94.6314 106° East 482 555 39,000  Level Kansas City Center
Sat 03:08:44 PM 36.2075 -94.5367 107° East 485 558 39,000  Level Memphis Center
Sat 03:09:44 PM 36.1728 -94.3833 106° East 475 547 39,000  Level Memphis Center
Sat 03:10:44 PM 36.1319 -94.2244 108° East 475 547 39,000  Level Memphis Center
Sat 03:11:44 PM 36.0950 -94.0686 106° East 475 547 39,000  Level Memphis Center
Sat 03:12:44 PM 36.0558 -93.9156 108° East 470 541 39,000  Level Memphis Center
Sat 03:13:44 PM 36.0164 -93.7572 107° East 470 541 39,000  Level Memphis Center
Sat 03:14:44 PM 35.9789 -93.6017 107° East 470 541 39,000  Level Memphis Center
Sat 03:15:44 PM 35.9411 -93.4464 107° East 470 541 39,000  Level Memphis Center
Sat 03:16:44 PM 35.9011 -93.2911 108° East 470 541 39,000  Level Memphis Center
Sat 03:17:44 PM 35.8631 -93.1336 107° East 470 541 39,000  Level Memphis Center
Sat 03:18:44 PM 35.8303 -93.0069 108° East 470 541 39,000  Level Memphis Center
Sat 03:19:44 PM 35.7881 -92.8342 107° East 470 541 39,000  Level Memphis Center
Sat 03:20:44 PM 35.7472 -92.6822 108° East 470 541 39,000  Level Memphis Center
Sat 03:21:44 PM 35.7061 -92.5275 108° East 470 541 39,000  Level Memphis Center
Sat 03:22:44 PM 35.6669 -92.3758 108° East 470 541 39,000  Level Memphis Center
Sat 03:23:44 PM 35.6275 -92.2217 107° East 470 541 39,000  Level Memphis Center
Sat 03:24:44 PM 35.5881 -92.0675 107° East 470 541 39,000  Level Memphis Center
Sat 03:25:44 PM 35.5464 -91.9111 108° East 470 541 39,000  Level Memphis Center
Sat 03:26:44 PM 35.5044 -91.7547 108° East 475 547 39,000  Level Memphis Center
Sat 03:27:44 PM 35.4622 -91.5983 108° East 475 547 39,000  Level Memphis Center
Sat 03:28:44 PM 35.4219 -91.4425 108° East 475 547 39,000  Level Memphis Center
Sat 03:29:44 PM 35.3814 -91.2917 108° East 475 547 39,000  Level Memphis Center
Sat 03:30:44 PM 35.3386 -91.1383 109° East 475 547 39,000  Level Memphis Center
Sat 03:31:44 PM 35.2958 -90.9856 109° East 475 547 39,000  Level Memphis Center
Sat 03:32:44 PM 35.2547 -90.8300 108° East 470 541 39,000  Level Memphis Center
Sat 03:33:44 PM 35.2114 -90.6772 109° East 470 541 39,000  Level Memphis Center
Sat 03:34:44 PM 35.1700 -90.5247 108° East 470 541 39,000  Level Memphis Center
Sat 03:35:44 PM 35.1264 -90.3697 109° East 475 547 39,000  Level Memphis Center
Sat 03:36:44 PM 35.0781 -90.1997 109° East 475 547 39,000  Level Memphis Center
Sat 03:37:44 PM 35.0342 -90.0450 109° East 481 554 39,000  Level Memphis Center
Sat 03:38:44 PM 35.0044 -89.8806 102° East 487 560 39,000  Level Memphis Center
Sat 03:39:44 PM 34.9786 -89.7133 101° East 487 560 39,000  Level Memphis Center
Sat 03:40:44 PM 34.9567 -89.5614 100° East 503 579 39,000  Level Memphis Center
Sat 03:41:44 PM 34.9306 -89.3997 101° East 495 570 39,000  Level Memphis Center
Sat 03:42:44 PM 34.9064 -89.2431 101° East 483 556 39,000  Level Memphis Center
Sat 03:43:44 PM 34.8819 -89.0811 100° East 478 550 39,000  Level Memphis Center
Sat 03:44:44 PM 34.8550 -88.9222 102° East 478 550 39,000  Level Memphis Center
Sat 03:45:44 PM 34.8300 -88.7506 100° East 478 550 39,000  Level Memphis Center
Sat 03:46:44 PM 34.8050 -88.5942 101° East 478 550 39,000  Level Memphis Center
Sat 03:47:44 PM 34.7797 -88.4381 101° East 478 550 39,000  Level Memphis Center
Sat 03:48:44 PM 34.7561 -88.2767 100° East 473 544 39,000  Level Memphis Center
Sat 03:49:44 PM 34.7283 -88.1108 101° East 493 567 39,000  Level Memphis Center
Sat 03:50:44 PM 34.7064 -87.9497 99° East 493 567 39,000 -50 Level Memphis Center
Sat 03:51:44 PM 34.6761 -87.7914 103° East 481 554 38,900 -1,250 Descending Memphis Center
Sat 03:52:44 PM 34.6500 -87.6356 101° East 481 554 36,500 -2,650 Descending Memphis Center
Sat 03:53:44 PM 34.6208 -87.4650 102° East 501 577 33,600 -1,533 Descending Memphis Center
Sat 03:55:01 PM 34.5889 -87.2683 101° East 485 558 33,000 -263 Descending Atlanta Center
Sat 03:56:01 PM 34.5575 -87.1108 104° East 479 551 33,000  Level Atlanta Center
Sat 03:57:01 PM 34.5278 -86.9558 103° East 474 545 33,000 -250 Level Atlanta Center
Sat 03:58:01 PM 34.4981 -86.8011 103° East 474 545 32,500 -750 Descending Atlanta Center
Sat 03:59:01 PM 34.4681 -86.6439 103° East 474 545 31,500 -1,100 Descending Atlanta Center
Sat 04:00:01 PM 34.4378 -86.4894 103° East 474 545 30,300 -1,250 Descending Atlanta Center
Sat 04:01:01 PM 34.4094 -86.3350 102° East 469 540 29,000 -1,450 Descending Atlanta Center
Sat 04:02:01 PM 34.3808 -86.1908 103° East 463 533 27,400 -1,800 Descending Atlanta Center
Sat 04:03:01 PM 34.3517 -86.0517 104° East 442 509 25,400 -1,650 Descending Atlanta Center
Sat 04:04:01 PM 34.3247 -85.9203 104° East 418 481 24,100 -1,200 Descending Atlanta Center
Sat 04:05:01 PM 34.3036 -85.7964 102° East 397 457 23,000 -1,350 Descending Atlanta Center
Sat 04:06:01 PM 34.2803 -85.6728 103° East 374 430 21,400 -1,600 Descending Atlanta Center
Sat 04:07:01 PM 34.2525 -85.5542 106° East 366 421 19,800 -1,500 Descending Atlanta Center
Sat 04:08:01 PM 34.2289 -85.4358 104° East 361 415 18,400 -1,300 Descending Atlanta Center
Sat 04:09:01 PM 34.2092 -85.3300 103° East 341 392 17,200 -1,300 Descending Atlanta Center
Sat 04:10:01 PM 34.1872 -85.2292 105° East 322 371 15,800 -1,300 Descending Atlanta Center
Sat 04:11:01 PM 34.1631 -85.1283 106° East 308 354 14,600 -1,150 Descending Atlanta Center
Sat 04:12:01 PM 34.1197 -85.0625 128° Southeast 292 336 13,500 -800 Descending Atlanta Center
Sat 04:13:01 PM 34.0639 -84.9942 135° Southeast 282 325 13,000 -850 Descending Atlanta Center
Sat 04:14:01 PM 33.9994 -84.9783 168° South 249 287 11,800 -1,350 Descending Atlanta Center
Sat 04:15:01 PM 33.9264 -84.9675 173° South 249 287 10,300 -1,000 Descending Atlanta Center
Sat 04:16:01 PM 33.8597 -84.9594 174° South 254 292 9,800 -600 Descending Atlanta Center
Sat 04:17:01 PM 33.7908 -84.9486 173° South 254 292 9,100 -1,000 Descending Atlanta Center
Sat 04:18:01 PM 33.7283 -84.9256 163° South 248 285 7,800 -1,050 Descending Atlanta Center
Sat 04:19:01 PM 33.6722 -84.9000 159° South 225 259 7,000 -553 Descending Atlanta Center
Sat 04:20:33 PM 33.6333 -84.8000 115° Southeast 209 241 6,400 -474 Descending Atlanta TRACON
Sat 04:21:33 PM 33.6333 -84.7333 90° East 211 243 5,800 -933 Descending Atlanta TRACON
Sat 04:23:33 PM 33.6333 -84.6000 90° East 191 220 3,600 -1,100 Descending Atlanta TRACON

Login

Don't have an account? Register now (free) for customized features, flight alerts, and more!